ADDS METAR Data INFO
IDs: Format: Raw Decoded Include TAF

Data at: 1751 UTC 15 Dec 2017

KCFJ 151735Z AUTO 10SM OVC022 M02/M06 RMK AO2 T10201061
KCFJ 151715Z AUTO 10SM OVC020 M02/M06 RMK AO2 T10181060
KCFJ 151655Z AUTO 10SM BKN018 BKN033 OVC042 M02/M06 RMK AO2 T10211060
KCFJ 151635Z AUTO 10SM BKN020 BKN030 OVC042 M03/M06 RMK AO2 T10271062
KCFJ 151615Z AUTO 10SM OVC020 M03/M07 RMK AO2 T10331066
KCFJ 151555Z AUTO 10SM BKN020 OVC026 M04/M07 RMK AO2 T10361068
KCFJ 151535Z AUTO 10SM OVC024 M04/M07 RMK AO2 T10371069
KCFJ 151515Z AUTO 10SM OVC026 M04/M07 A3001 RMK AO2 T10401072
KCFJ 151455Z AUTO 10SM OVC026 M04/M07 A3001 RMK AO2 T10421073
KCFJ 151435Z AUTO 10SM OVC028 M04/M07 A3000 RMK AO2 T10451075
KCFJ 151415Z AUTO 10SM BKN028 OVC045 M04/M07 A2998 RMK AO2 T10451075
KCFJ 151355Z AUTO 10SM BKN028 OVC047 M05/M08 RMK AO2 T10461076
KCFJ 151335Z AUTO 10SM OVC047 M05/M08 RMK AO2 T10481076
KCFJ 151315Z AUTO 10SM OVC045 M05/M08 RMK AO2 T10501077
KCFJ 151255Z AUTO 10SM OVC043 M05/M08 RMK AO2 T10511079
KCFJ 151235Z AUTO 10SM SCT030 OVC041 M05/M08 RMK AO2 T10521081
KCFJ 151215Z AUTO 10SM OVC030 M05/M08 RMK AO2 T10511084
KCFJ 151155Z AUTO 10SM OVC030 M05/M08 RMK AO2 T10501082 11046 21070
KCFJ 151135Z AUTO 10SM OVC030 M05/M08 RMK AO2 T10501082
KCFJ 151115Z AUTO 10SM OVC030 M05/M08 RMK AO2 T10501083
KCFJ 151055Z AUTO 10SM OVC030 M05/M08 RMK AO2 T10501085
KCFJ 151035Z AUTO 10SM OVC032 M05/M08 RMK AO2 T10501085
KCFJ 151015Z AUTO 10SM OVC034 M05/M08 RMK AO2 T10521084
KCFJ 150955Z AUTO 10SM OVC034 M05/M08 RMK AO2 T10531082
KCFJ 150935Z AUTO 24006KT 10SM BKN034 OVC120 M06/M08 RMK AO2 T10561080
KCFJ 150915Z AUTO 10SM SCT034 BKN120 M06/M08 RMK AO2 T10601080
KCFJ 150855Z AUTO 23005KT 10SM CLR M06/M08 RMK AO2 T10611083
KCFJ 150835Z AUTO 10SM CLR M07/M09 RMK AO2 T10691089
KCFJ 150815Z AUTO 21004KT 10SM SCT037 M06/M09 RMK AO2 T10611087
KCFJ 150755Z AUTO 21004KT 10SM BKN037 M06/M09 RMK AO2 T10571086
KCFJ 150735Z AUTO 10SM BKN037 M06/M09 RMK AO2 T10591086
KCFJ 150715Z AUTO 10SM OVC037 M06/M08 RMK AO2 T10561085
KCFJ 150655Z AUTO 21004KT 10SM OVC037 M05/M08 RMK AO2 T10511084
KCFJ 150635Z AUTO 10SM OVC037 M05/M08 RMK AO2 T10531085
KCFJ 150615Z AUTO 10SM OVC037 M05/M08 RMK AO2 T10501085
KCFJ 150555Z AUTO 10SM OVC039 M05/M09 RMK AO2 T10461086 11045 21074
KCFJ 150535Z AUTO 21004KT 10SM OVC039 M04/M08 RMK AO2 T10451085
KCFJ 150515Z AUTO 10SM OVC039 M04/M08 RMK AO2 T10451083
KCFJ 150455Z AUTO 21003KT 10SM OVC039 M05/M08 RMK AO2 T10471083 410151074
KCFJ 150435Z AUTO 10SM OVC041 M05/M08 RMK AO2 T10501080
KCFJ 150415Z AUTO 10SM OVC041 M05/M08 RMK AO2 T10511079
KCFJ 150355Z AUTO 14003KT 10SM OVC041 M05/M08 RMK AO2 T10521083
KCFJ 150335Z AUTO 00000KT 10SM OVC043 M05/M08 RMK AO2 T10541080
KCFJ 150315Z AUTO 00000KT 10SM OVC043 M05/M08 RMK AO2 T10551079
KCFJ 150255Z AUTO 10SM OVC043 M06/M08 RMK AO2 T10591083
KCFJ 150235Z AUTO 00000KT 10SM OVC043 M07/M09 RMK AO2 T10681089
KCFJ 150215Z AUTO 10SM OVC043 M07/M10 RMK AO2 T10741097
KCFJ 150155Z AUTO 10SM BKN043 M06/M10 RMK AO2 T10621105
KCFJ 150135Z AUTO 16003KT 10SM SCT043 M07/M11 RMK AO2 T10731107
KCFJ 150115Z AUTO 00000KT 10SM SCT043 M06/M10 RMK AO2 T10561102
KCFJ 150055Z AUTO 10SM SCT043 M06/M10 RMK AO2 T10611102
KCFJ 150035Z AUTO 10SM CLR M05/M11 RMK AO2 T10501108
KCFJ 150015Z AUTO 10SM CLR M05/M10 RMK AO2 T10521105
KCFJ 142355Z AUTO 10SM CLR M05/M10 RMK AO2 T10501105 11015 21054
KCFJ 142335Z AUTO 00000KT 10SM CLR M05/M10 RMK AO2 T10531104
KCFJ 142315Z AUTO 10SM CLR M04/M11 A3006 RMK AO2 T10411110
KCFJ 142255Z AUTO 00000KT 10SM CLR M03/M11 A3006 RMK AO2 T10321111
KCFJ 142235Z AUTO 10SM CLR M04/M11 A3006 RMK AO2 T10361108
KCFJ 142215Z AUTO 10SM CLR M03/M11 A3006 RMK AO2 T10261109
KCFJ 142155Z AUTO 00000KT 10SM CLR M02/M11 A3006 RMK AO2 T10231111
KCFJ 142135Z AUTO 00000KT 10SM CLR M02/M11 A3005 RMK AO2 T10231111
KCFJ 142115Z AUTO 00000KT 10SM CLR M02/M11 A3005 RMK AO2 T10221111
KCFJ 142055Z AUTO 00000KT 10SM CLR M02/M11 A3004 RMK AO2 T10221112
KCFJ 142035Z AUTO 00000KT 10SM CLR M02/M11 A3004 RMK AO2 T10201112
KCFJ 142015Z AUTO 09003KT 10SM CLR M01/M11 A3004 RMK AO2 T10151110
KCFJ 141955Z AUTO 06005KT 10SM CLR M02/M11 A3004 RMK AO2 T10181109
KCFJ 141935Z AUTO 04004KT 10SM CLR M02/M11 A3003 RMK AO2 T10181109
KCFJ 141915Z AUTO 05005KT 10SM CLR M02/M11 A3004 RMK AO2 T10211109
KCFJ 141855Z AUTO 06005KT 10SM CLR M02/M11 A3004 RMK AO2 T10201109
KCFJ 141835Z AUTO 10SM CLR M02/M11 A3004 RMK AO2 T10201110
KCFJ 141815Z AUTO 10SM CLR M02/M11 A3005 RMK AO2 T10251114
KCFJ 141755Z AUTO 10SM CLR M02/M11 A3005 RMK AO2 T10251115 11021 21049
KCFJ 141735Z AUTO 10SM CLR M02/M11 A3006 RMK AO2 T10221115
KCFJ 141715Z AUTO 10SM CLR M02/M11 A3006 RMK AO2 T10251115
KCFJ 141655Z AUTO 10SM CLR M02/M11 A3006 RMK AO2 T10221115
KCFJ 141635Z AUTO 10SM CLR M02/M11 A3006 RMK AO2 T10231111
KCFJ 141615Z AUTO 10SM CLR M03/M10 A3007 RMK AO2 T10261105
KCFJ 141555Z AUTO 10SM CLR M03/M11 A3006 RMK AO2 T10301106
KCFJ 141535Z AUTO 10SM CLR M03/M11 A3006 RMK AO2 T10341106
KCFJ 141515Z AUTO 03009KT 10SM CLR M04/M10 A3004 RMK AO2 T10391102
KCFJ 141455Z AUTO 04008KT 10SM CLR M04/M10 A3001 RMK AO2 T10451097
KCFJ 141415Z AUTO 03007KT 10SM OVC037 M04/M08 A2998 RMK AO2 T10401076
KCFJ 141355Z AUTO 05007KT 10SM OVC035 M04/M07 A2996 RMK AO2 T10411074
KCFJ 141335Z AUTO 04005KT 10SM OVC035 M04/M07 A2995 RMK AO2 T10401073
KCFJ 141315Z AUTO 03005KT 10SM OVC033 M04/M07 A2994 RMK AO2 T10381075
KCFJ 141255Z AUTO 03007KT 10SM OVC031 M04/M07 A2994 RMK AO2 T10361071
KCFJ 141235Z AUTO 03006KT 10SM OVC031 M03/M07 A2993 RMK AO2 T10351071
KCFJ 141215Z AUTO 02005KT 10SM OVC027 M03/M08 A2992 RMK AO2 T10301076
KCFJ 141155Z AUTO 36008KT 10SM OVC027 M03/M07 A2991 RMK AO2 T10301073 11025 21032
KCFJ 141135Z AUTO 36008KT 10SM OVC027 M03/M07 A2991 RMK AO2 T10281074
KCFJ 141115Z AUTO 33008KT 10SM OVC027 M03/M07 A2990 RMK AO2 T10281075
KCFJ 141055Z AUTO 33005KT 10SM OVC029 M03/M08 A2988 RMK AO2 T10271077
KCFJ 141035Z AUTO 34008G14KT 10SM OVC029 M03/M08 A2987 RMK AO2 T10261077
KCFJ 141015Z AUTO 35008KT 10SM OVC029 M02/M07 A2986 RMK AO2 T10251075
KCFJ 140955Z AUTO 34008KT 10SM OVC027 M02/M07 A2986 RMK AO2 T10251073
KCFJ 140935Z AUTO 34007KT 10SM OVC027 M02/M06 A2985 RMK AO2 T10251065
KCFJ 140915Z AUTO 33006KT 10SM OVC027 M02/M06 A2984 RMK AO2 T10251065
KCFJ 140855Z AUTO 33009KT 10SM OVC027 M03/M06 A2983 RMK AO2 T10271065
KCFJ 140835Z AUTO 32008G15KT 10SM OVC027 M03/M06 A2982 RMK AO2 T10271065
KCFJ 140815Z AUTO 10SM OVC025 M03/M07 A2981 RMK AO2 T10281066
KCFJ 140755Z AUTO 10SM OVC025 M03/M07 A2980 RMK AO2 T10291067
KCFJ 140735Z AUTO 10SM OVC027 M03/M07 A2978 RMK AO2 T10301069
KCFJ 140715Z AUTO 10SM OVC027 M03/M07 A2977 RMK AO2 T10291070
KCFJ 140655Z AUTO 10SM OVC027 M03/M07 A2976 RMK AO2 T10301070
KCFJ 140635Z AUTO 10SM BKN027 OVC037 M03/M07 A2975 RMK AO2 T10301071
KCFJ 140555Z AUTO 10SM BKN027 BKN031 OVC039 M03/M07 A2972 RMK AO2 T10311073 10030 21031